Sao Miguel do Araguaia, Brazil
Current Conditions -  °F | °C
As of 11:00 PM on Friday 24 Oct 2014 (Local Time) from SBAN Reporting Station
Broken Clouds Broken Clouds  
Wind Chill: 72°   Ceiling: 10000
Heat Index: 72°   Visibility: 6mi
Dew Point: 57°   Wind: 0mph
Humidity: 60%   Direction: NA
Pressure: 30.06"   Gusts: NA
Location:  13.28°S, 50.16°W
Report Text: SBAN 250100Z 00000KT 9999 FEW040 BKN100 22/14 Q1018
Loading
Personal Weather Stations






























Interactive Weather Map
Tropical Storm Tracking
New forecast layout! Learn more

10-Day Weather Forecast

Advertisements
Track Severe Weather on mobile